메인 페이지
METAR-TAF:

METAR-TAF

공항 :

Mfuwe, 잠비아

위도: 13-15-32S, 경도: 031-56-12E, 고도: 573m

METAR: 누락

시각: 16:35 (14:35 UTC)

예보

예보는 10 시간 35분 전, 04:00시(UTC)에 발표되었습니다.
예보 대상 시간: 14일 06시부터 15일 12시까지 (UTC)
남남동5kt
시정 10km 이상
고도 1500ft 상공 구름 보통
고도 9000ft 상공 구름 많음
확률 40% :
일시적
14일 12시부터 14일 14시까지 (UTC)
시정: 8000m
고도 3000ft 상공 구름 조금, 적란운.
고도 3500ft 상공 구름 많음
뇌우, 비
전환 중
14일 18시부터 14일 20시까지 (UTC)
동남동5kt
시정 10km 이상
고도 4500ft 상공 구름 보통
고도 8000ft 상공 구름 많음
전환 중
15일 02시부터 15일 04시까지 (UTC)
남동5kt

TAF: FLMF 140400Z 1406/1512 16005KT 9999 SCT015 BKN090 PROB40 TEMPO 1412/1414 8000 TSRA FEW030CB BKN035 BECMG 1418/1420 11005KT 9999 SCT045 BKN080 BECMG 1502/1504 13005KT

4,000개 이상의 공항 관측 자료 및 예보 (METAR 및 TAF 보고).

지도상에서 검색 가능한 기상관측소가 노란 점과 빨간 점으로 표시되어 있습니다.

기상관측소 명을 보려면 표시 위로 마우스를 이동하세요.

날씨 관측과 예보를 보려면 클릭하세요.

지도 변경 : 확대하려면 엑스 표시가 있는 녹색 버튼, 축소하려면 빼기 표시가 있는 녹색 버튼, 다음 페이지의 지도를 보려면 녹색 화살표를 클릭하세요.


METAR-TAF: